Terminal Aerodrome Forecast
Issued by NWS

Home | Current Version | Previous Version | Text Only | Print | Product List | Glossary On
Versions: 1 2 3 4 5 6 7 8 9 10 11 12 13 14 15
000
FTUS46 KSEW 231131
TAFPAE
TAF
KPAE 231131Z 2312/2412 VRB03KT P6SM SKC
     FM231300 VRB03KT 5SM BR OVC006
      TEMPO 2313/2315 6SM BR SCT006
     FM231800 22006KT P6SM SCT012 BKN030 BKN250
     FM232100 25007KT P6SM SCT035 BKN250
     FM240000 33006KT P6SM SCT035 BKN250
     FM240800 19005KT P6SM SCT020 BKN250
      TEMPO 2408/2412 BKN020=

USA.gov is the U.S. government's official web portal to all federal, state and local government web resources and services.